createdAt,value
2018-05-24T00:00:49.617Z,99.90
2018-05-24T00:03:15.876Z,99.90
2018-05-24T00:05:42.144Z,99.90
2018-05-24T00:08:08.373Z,99.90
2018-05-24T00:10:35.418Z,99.90
2018-05-24T00:13:03.185Z,99.90
2018-05-24T00:15:30.792Z,99.90
2018-05-24T00:17:57.036Z,99.90
2018-05-24T00:20:23.257Z,99.90
2018-05-24T00:22:49.489Z,99.90
2018-05-24T00:25:16.234Z,99.90
2018-05-24T00:27:43.556Z,99.70
2018-05-24T00:30:10.540Z,99.90
2018-05-24T00:32:37.517Z,99.90
2018-05-24T00:35:04.171Z,99.90
2018-05-24T00:37:30.429Z,99.90
2018-05-24T00:39:56.665Z,99.90
2018-05-24T00:42:23.676Z,99.90
2018-05-24T00:44:50.626Z,99.90
2018-05-24T00:47:17.521Z,99.90
2018-05-24T00:49:44.978Z,99.90
2018-05-24T00:52:11.714Z,99.90
2018-05-24T00:54:39.405Z,99.90
2018-05-24T00:57:06.866Z,99.90
2018-05-24T00:59:34.277Z,99.90
2018-05-24T01:02:00.506Z,99.90
2018-05-24T01:04:26.741Z,99.90
2018-05-24T01:06:52.989Z,99.90
2018-05-24T01:09:19.205Z,99.90
2018-05-24T01:11:45.910Z,99.90
2018-05-24T01:14:13.567Z,99.90
2018-05-24T01:16:40.532Z,99.90
2018-05-24T01:19:07.490Z,99.90
2018-05-24T01:21:34.165Z,99.90
2018-05-24T01:24:00.397Z,99.90
2018-05-24T01:26:27.052Z,99.90
2018-05-24T01:28:53.850Z,99.90
2018-05-24T01:31:20.058Z,99.90
2018-05-24T01:33:46.296Z,99.90
2018-05-24T01:36:12.522Z,99.90
2018-05-24T01:38:38.728Z,99.90
2018-05-24T01:41:05.034Z,99.90
2018-05-24T01:43:31.859Z,99.90
2018-05-24T01:45:59.428Z,99.90
2018-05-24T01:48:26.888Z,99.90
2018-05-24T01:50:53.914Z,99.90
2018-05-24T01:53:20.126Z,99.90
2018-05-24T01:55:46.353Z,99.90
2018-05-24T01:58:13.065Z,99.90
2018-05-24T02:00:39.283Z,99.90
2018-05-24T02:03:07.001Z,99.90
2018-05-24T02:05:33.565Z,99.90
2018-05-24T02:07:59.777Z,99.90
2018-05-24T02:10:27.240Z,99.90
2018-05-24T02:12:53.882Z,99.90
2018-05-24T02:15:20.710Z,99.90
2018-05-24T02:17:46.938Z,99.90
2018-05-24T02:20:13.180Z,99.90
2018-05-24T02:22:39.406Z,99.90
2018-05-24T02:25:06.659Z,99.90
2018-05-24T02:27:34.092Z,99.90
2018-05-24T02:30:00.304Z,99.90
2018-05-24T02:32:26.520Z,99.90
2018-05-24T02:34:53.161Z,99.90
2018-05-24T02:37:19.382Z,99.90
2018-05-24T02:39:45.813Z,99.90
2018-05-24T02:42:12.078Z,99.90
2018-05-24T02:44:38.733Z,99.90
2018-05-24T02:47:05.508Z,99.90
2018-05-24T02:49:33.649Z,99.90
2018-05-24T02:51:59.874Z,99.90
2018-05-24T02:54:26.090Z,99.90
2018-05-24T02:56:52.361Z,99.90
2018-05-24T02:59:19.121Z,99.90
2018-05-24T03:01:45.837Z,99.90
2018-05-24T03:04:12.765Z,99.90
2018-05-24T03:06:39.593Z,99.90
2018-05-24T03:09:05.853Z,99.90
2018-05-24T03:11:32.077Z,99.90
2018-05-24T03:13:59.027Z,99.90
2018-05-24T03:16:25.258Z,99.90
2018-05-24T03:18:51.480Z,99.90
2018-05-24T03:21:18.312Z,99.90
2018-05-24T03:23:45.915Z,99.90
2018-05-24T03:26:12.825Z,99.90
2018-05-24T03:28:39.787Z,99.90
2018-05-24T03:31:06.769Z,99.90
2018-05-24T03:33:33.017Z,99.90
2018-05-24T03:35:59.251Z,99.90
2018-05-24T03:38:25.564Z,99.90
2018-05-24T03:40:52.484Z,99.90
2018-05-24T03:43:19.955Z,99.90
2018-05-24T03:45:46.913Z,99.90
2018-05-24T03:48:13.609Z,99.90
2018-05-24T03:50:39.836Z,99.90
2018-05-24T03:53:06.732Z,99.90
2018-05-24T03:55:33.681Z,99.90
2018-05-24T03:58:01.230Z,99.90
2018-05-24T04:00:40.274Z,99.90
2018-05-24T04:03:19.642Z,99.90
2018-05-24T04:05:46.304Z,99.90
2018-05-24T04:08:12.526Z,99.90
2018-05-24T04:10:38.763Z,99.90
2018-05-24T04:13:05.420Z,99.90
2018-05-24T04:15:32.065Z,99.90
2018-05-24T04:17:58.320Z,99.90
2018-05-24T04:20:24.881Z,99.90
2018-05-24T04:22:52.354Z,99.90
2018-05-24T04:25:19.088Z,99.90
2018-05-24T04:27:45.328Z,99.90
2018-05-24T04:30:11.578Z,99.90
2018-05-24T04:32:37.830Z,99.90
2018-05-24T04:35:04.034Z,99.90
2018-05-24T04:37:30.369Z,99.90
2018-05-24T04:39:57.106Z,99.90
2018-05-24T04:42:24.677Z,99.90
2018-05-24T04:44:51.427Z,99.90
2018-05-24T04:47:18.117Z,99.90
2018-05-24T04:49:44.360Z,99.90
2018-05-24T04:52:10.987Z,99.90
2018-05-24T04:54:37.226Z,99.90
2018-05-24T04:57:04.027Z,99.90
2018-05-24T04:59:30.250Z,99.90
2018-05-24T05:01:57.816Z,99.90
2018-05-24T05:04:24.792Z,99.90
2018-05-24T05:06:51.001Z,99.90
2018-05-24T05:09:17.985Z,99.90
2018-05-24T05:11:44.914Z,99.90
2018-05-24T05:14:11.128Z,99.90
2018-05-24T05:16:38.435Z,99.90
2018-05-24T05:19:05.352Z,99.90
2018-05-24T05:21:32.337Z,99.90
2018-05-24T05:23:58.576Z,99.90
2018-05-24T05:26:25.260Z,99.90
2018-05-24T05:28:52.764Z,99.90
2018-05-24T05:31:19.589Z,99.90
2018-05-24T05:33:46.562Z,99.90
2018-05-24T05:36:13.234Z,99.90
2018-05-24T05:38:39.753Z,99.60
2018-05-24T05:41:05.966Z,98.80
2018-05-24T05:43:32.810Z,99.10
2018-05-24T05:45:59.766Z,98.50
2018-05-24T05:48:26.340Z,98.50
2018-05-24T05:50:52.556Z,97.90
2018-05-24T05:53:18.777Z,97.90
2018-05-24T05:55:45.019Z,98.10
2018-05-24T05:58:11.641Z,98.30
2018-05-24T06:00:39.412Z,96.30
2018-05-24T06:03:06.394Z,95.40
2018-05-24T06:05:32.621Z,95.20
2018-05-24T06:07:58.876Z,94.50
2018-05-24T06:10:25.108Z,94.80
2018-05-24T06:12:51.961Z,94.60
2018-05-24T06:15:18.636Z,93.30
2018-05-24T06:17:45.505Z,93.20
2018-05-24T06:20:12.968Z,94.90
2018-05-24T06:22:39.927Z,95.60
2018-05-24T06:25:07.661Z,95.30
2018-05-24T06:27:33.908Z,95.20
2018-05-24T06:30:00.113Z,94.80
2018-05-24T06:32:26.364Z,94.90
2018-05-24T06:34:52.969Z,95.40
2018-05-24T06:37:19.794Z,93.80
2018-05-24T06:39:46.017Z,93.60
2018-05-24T06:42:12.977Z,92.00
2018-05-24T06:44:39.809Z,91.90
2018-05-24T06:47:07.403Z,89.70
2018-05-24T06:49:33.635Z,89.60
2018-05-24T06:51:59.852Z,90.80
2018-05-24T06:54:26.106Z,92.00
2018-05-24T06:56:52.340Z,92.20
2018-05-24T06:59:18.901Z,90.10
2018-05-24T07:01:45.131Z,90.00
2018-05-24T07:04:11.361Z,88.90
2018-05-24T07:06:37.612Z,89.50
2018-05-24T07:09:05.705Z,88.40
2018-05-24T07:11:32.460Z,88.20
2018-05-24T07:13:59.233Z,89.10
2018-05-24T07:16:25.828Z,89.20
2018-05-24T07:18:52.052Z,88.20
2018-05-24T07:21:18.256Z,87.10
2018-05-24T07:23:44.500Z,86.80
2018-05-24T07:26:11.145Z,87.80
2018-05-24T07:28:37.385Z,87.90
2018-05-24T07:31:04.099Z,87.30
2018-05-24T07:33:31.061Z,85.60
2018-05-24T07:35:58.020Z,85.40
2018-05-24T07:38:24.262Z,84.20
2018-05-24T07:40:50.485Z,85.00
2018-05-24T07:43:17.209Z,84.70
2018-05-24T07:45:44.169Z,84.70
2018-05-24T07:48:11.105Z,84.60
2018-05-24T07:50:38.067Z,84.90
2018-05-24T07:53:04.302Z,84.70
2018-05-24T07:55:31.689Z,83.70
2018-05-24T07:57:58.567Z,83.60
2018-05-24T08:00:24.792Z,82.80
2018-05-24T08:02:51.009Z,82.70
2018-05-24T08:05:17.793Z,82.20
2018-05-24T08:07:44.000Z,81.90
2018-05-24T08:10:10.747Z,81.70
2018-05-24T08:12:37.508Z,81.50
2018-05-24T08:15:04.027Z,81.40
2018-05-24T08:17:30.242Z,82.50
2018-05-24T08:19:56.508Z,81.20
2018-05-24T08:22:22.738Z,80.60
2018-05-24T08:24:50.276Z,80.90
2018-05-24T08:27:16.500Z,79.40
2018-05-24T08:29:43.153Z,79.30
2018-05-24T08:32:09.975Z,78.30
2018-05-24T08:34:36.937Z,78.50
2018-05-24T08:37:03.169Z,78.30
2018-05-24T08:39:29.428Z,76.20
2018-05-24T08:41:56.753Z,76.20
2018-05-24T08:44:24.060Z,77.00
2018-05-24T08:46:50.293Z,77.00
2018-05-24T08:49:16.965Z,77.40
2018-05-24T08:51:43.184Z,72.90
2018-05-24T08:54:09.852Z,77.10
2018-05-24T08:56:36.817Z,73.40
2018-05-24T08:59:04.536Z,73.70
2018-05-24T09:01:31.426Z,73.60
2018-05-24T09:03:59.105Z,73.60
2018-05-24T09:06:26.413Z,74.50
2018-05-24T09:08:52.642Z,74.50
2018-05-24T09:11:19.180Z,74.10
2018-05-24T09:13:45.841Z,73.90
2018-05-24T09:16:12.065Z,73.50
2018-05-24T09:18:38.281Z,73.40
2018-05-24T09:21:04.524Z,73.30
2018-05-24T09:23:30.766Z,73.70
2018-05-24T09:25:57.569Z,72.40
2018-05-24T09:28:25.124Z,72.20
2018-05-24T09:30:52.521Z,69.10
2018-05-24T09:33:18.748Z,69.00
2018-05-24T09:35:44.984Z,70.80
2018-05-24T09:38:11.236Z,70.80
2018-05-24T09:40:37.458Z,67.10
2018-05-24T09:43:04.420Z,68.40
2018-05-24T09:45:31.080Z,69.70
2018-05-24T09:47:58.183Z,68.10
2018-05-24T09:50:25.946Z,67.70
2018-05-24T09:52:53.022Z,68.30
2018-05-24T09:55:19.921Z,68.30
2018-05-24T09:57:46.731Z,68.10
2018-05-24T10:00:12.977Z,67.10
2018-05-24T10:02:39.833Z,67.40
2018-05-24T10:05:06.625Z,66.80
2018-05-24T10:07:34.092Z,66.80
2018-05-24T10:10:01.051Z,65.60
2018-05-24T10:12:27.597Z,65.20
2018-05-24T10:14:53.812Z,67.00
2018-05-24T10:17:20.789Z,66.10
2018-05-24T10:19:47.048Z,66.10
2018-05-24T10:22:13.261Z,66.80
2018-05-24T10:24:40.180Z,67.00
2018-05-24T10:27:07.546Z,64.60
2018-05-24T10:29:34.512Z,64.30
2018-05-24T10:32:00.749Z,64.20
2018-05-24T10:34:26.997Z,65.80
2018-05-24T10:36:53.233Z,66.00
2018-05-24T10:39:19.535Z,62.80
2018-05-24T10:41:46.529Z,62.10
2018-05-24T10:44:13.456Z,61.70
2018-05-24T10:46:40.492Z,61.60
2018-05-24T10:49:07.793Z,62.50
2018-05-24T10:51:34.457Z,62.50
2018-05-24T10:54:00.695Z,62.60
2018-05-24T10:56:27.429Z,62.00
2018-05-24T10:58:54.218Z,62.50
2018-05-24T11:01:21.876Z,62.60
2018-05-24T11:03:49.683Z,62.30
2018-05-24T11:06:16.357Z,62.20
2018-05-24T11:08:43.004Z,62.00
2018-05-24T11:11:09.234Z,62.20
2018-05-24T11:13:35.957Z,62.90
2018-05-24T11:16:02.186Z,63.20
2018-05-24T11:18:28.971Z,63.50
2018-05-24T11:20:57.713Z,65.10
2018-05-24T11:23:28.035Z,65.10
2018-05-24T11:25:55.884Z,65.80
2018-05-24T11:28:22.852Z,66.20
2018-05-24T11:30:49.076Z,66.10
2018-05-24T11:33:16.059Z,67.60
2018-05-24T11:35:42.278Z,67.50
2018-05-24T11:38:08.598Z,67.70
2018-05-24T11:40:35.568Z,68.50
2018-05-24T11:43:02.443Z,68.50
2018-05-24T11:45:29.611Z,67.80
2018-05-24T11:47:56.250Z,68.00
2018-05-24T11:50:22.476Z,68.80
2018-05-24T11:52:48.697Z,69.60
2018-05-24T11:55:14.937Z,70.40
2018-05-24T11:57:41.745Z,70.60
2018-05-24T12:00:08.306Z,71.50
2018-05-24T12:02:34.985Z,72.30
2018-05-24T12:05:01.202Z,73.20
2018-05-24T12:07:28.163Z,74.40
2018-05-24T12:09:54.402Z,80.20
2018-05-24T12:12:21.306Z,79.20
2018-05-24T12:14:47.514Z,84.30
2018-05-24T12:17:14.475Z,93.30
2018-05-24T12:19:42.034Z,91.00
2018-05-24T12:22:09.669Z,89.00
2018-05-24T12:24:35.892Z,89.20
2018-05-24T12:27:02.690Z,90.00
2018-05-24T12:29:29.673Z,90.80
2018-05-24T12:31:55.915Z,91.10
2018-05-24T12:34:22.155Z,90.30
2018-05-24T12:36:48.392Z,90.30
2018-05-24T12:39:15.020Z,90.40
2018-05-24T12:41:41.731Z,86.50
2018-05-24T12:44:08.401Z,89.50
2018-05-24T12:46:34.644Z,89.70
2018-05-24T12:49:01.492Z,88.90
2018-05-24T12:51:28.042Z,88.00
2018-05-24T12:53:54.772Z,88.20
2018-05-24T12:56:21.005Z,87.40
2018-05-24T12:58:47.648Z,85.30
2018-05-24T13:01:14.364Z,85.30
2018-05-24T13:03:41.332Z,81.50
2018-05-24T13:06:07.557Z,81.40
2018-05-24T13:08:34.544Z,74.50
2018-05-24T13:11:00.763Z,74.70
2018-05-24T13:13:27.419Z,78.40
2018-05-24T13:15:53.647Z,76.00
2018-05-24T13:18:20.312Z,77.20
2018-05-24T13:20:47.264Z,81.80
2018-05-24T13:23:13.506Z,80.30
2018-05-24T13:25:41.018Z,77.50
2018-05-24T13:28:07.252Z,75.50
2018-05-24T13:30:33.920Z,80.70
2018-05-24T13:33:00.943Z,79.70
2018-05-24T13:35:27.176Z,80.30
2018-05-24T13:37:54.156Z,76.30
2018-05-24T13:40:20.739Z,75.90
2018-05-24T13:42:47.763Z,71.40
2018-05-24T13:45:14.608Z,70.40
2018-05-24T13:47:41.859Z,69.70
2018-05-24T13:50:08.089Z,68.50
2018-05-24T13:52:34.315Z,74.00
2018-05-24T13:55:01.040Z,68.50
2018-05-24T13:57:40.727Z,60.90
2018-05-24T14:00:06.955Z,60.20
2018-05-24T14:02:33.173Z,63.80
2018-05-24T14:04:59.425Z,62.90
2018-05-24T14:07:25.686Z,62.00
2018-05-24T14:09:53.489Z,58.60
2018-05-24T14:12:20.947Z,54.80
2018-05-24T14:14:49.120Z,57.40
2018-05-24T14:17:16.483Z,54.40
2018-05-24T14:19:43.458Z,50.50
2018-05-24T14:22:09.691Z,49.50
2018-05-24T14:24:35.958Z,49.60
2018-05-24T14:27:02.912Z,52.20
2018-05-24T14:29:29.640Z,49.70
2018-05-24T14:31:55.881Z,53.40
2018-05-24T14:34:22.106Z,51.50
2018-05-24T14:36:48.369Z,53.40
2018-05-24T14:39:15.154Z,50.50
2018-05-24T14:41:42.125Z,53.50
2018-05-24T14:44:08.952Z,53.40
2018-05-24T14:46:36.437Z,54.20
2018-05-24T14:49:03.267Z,53.60
2018-05-24T14:51:30.244Z,56.70
2018-05-24T14:53:57.049Z,56.60
2018-05-24T14:56:24.954Z,59.30
2018-05-24T14:58:52.158Z,58.60
2018-05-24T15:01:18.369Z,60.30
2018-05-24T15:03:44.601Z,61.00
2018-05-24T15:06:10.854Z,61.90
2018-05-24T15:08:37.084Z,61.30
2018-05-24T15:11:03.400Z,62.20
2018-05-24T15:13:42.378Z,62.50
2018-05-24T15:16:10.781Z,64.90
2018-05-24T15:18:37.372Z,64.90
2018-05-24T15:21:03.584Z,65.80
2018-05-24T15:23:29.821Z,65.80
2018-05-24T15:25:56.624Z,66.40
2018-05-24T15:28:23.589Z,67.10
2018-05-24T15:30:49.938Z,67.10
2018-05-24T15:33:16.199Z,67.20
2018-05-24T15:35:42.871Z,66.40
2018-05-24T15:38:09.106Z,66.60
2018-05-24T15:40:35.752Z,65.90
2018-05-24T15:43:02.524Z,66.20
2018-05-24T15:45:29.210Z,66.80
2018-05-24T15:47:56.296Z,66.60
2018-05-24T15:50:22.946Z,66.10
2018-05-24T15:52:50.626Z,66.70
2018-05-24T15:55:17.593Z,66.80
2018-05-24T15:57:44.360Z,66.70
2018-05-24T16:00:10.611Z,69.80
2018-05-24T16:02:37.606Z,69.70
2018-05-24T16:05:04.626Z,71.00
2018-05-24T16:07:30.858Z,71.10
2018-05-24T16:09:57.634Z,75.30
2018-05-24T16:12:25.170Z,76.40
2018-05-24T16:14:51.402Z,76.80
2018-05-24T16:17:17.645Z,77.00
2018-05-24T16:19:43.909Z,78.00
2018-05-24T16:22:10.892Z,79.60
2018-05-24T16:24:37.203Z,79.60
2018-05-24T16:27:04.017Z,79.70
2018-05-24T16:29:30.712Z,82.20
2018-05-24T16:31:57.516Z,81.50
2018-05-24T16:34:24.832Z,83.70
2018-05-24T16:36:51.073Z,84.20
2018-05-24T16:39:17.336Z,84.50
2018-05-24T16:41:43.588Z,87.00
2018-05-24T16:44:10.913Z,85.90
2018-05-24T16:46:37.153Z,86.10
2018-05-24T16:49:04.012Z,88.20
2018-05-24T16:51:31.140Z,86.90
2018-05-24T16:53:57.794Z,87.60
2018-05-24T16:56:24.045Z,88.60
2018-05-24T16:58:51.108Z,89.20
2018-05-24T17:01:18.069Z,89.30
2018-05-24T17:03:45.780Z,90.00
2018-05-24T17:06:12.346Z,90.30
2018-05-24T17:08:39.466Z,90.50
2018-05-24T17:11:06.190Z,90.20
2018-05-24T17:13:32.769Z,90.80
2018-05-24T17:15:59.013Z,92.20
2018-05-24T17:18:25.226Z,90.20
2018-05-24T17:20:51.474Z,92.20
2018-05-24T17:23:17.700Z,91.30
2018-05-24T17:25:44.460Z,91.70
2018-05-24T17:28:10.771Z,92.40
2018-05-24T17:30:37.003Z,93.10
2018-05-24T17:33:03.932Z,93.20
2018-05-24T17:35:30.917Z,93.10
2018-05-24T17:37:57.179Z,93.10
2018-05-24T17:40:23.445Z,93.70
2018-05-24T17:42:51.757Z,93.20
2018-05-24T17:45:18.477Z,93.40
2018-05-24T17:47:46.002Z,94.40
2018-05-24T17:50:12.218Z,94.50
2018-05-24T17:52:39.082Z,93.90
2018-05-24T17:55:05.309Z,93.60
2018-05-24T17:57:32.108Z,93.40
2018-05-24T17:59:59.091Z,93.90
2018-05-24T18:02:26.219Z,94.00
2018-05-24T18:04:53.160Z,94.50
2018-05-24T18:07:20.715Z,96.20
2018-05-24T18:09:47.714Z,96.50
2018-05-24T18:12:14.962Z,96.80
2018-05-24T18:14:41.176Z,96.50
2018-05-24T18:17:07.411Z,96.70
2018-05-24T18:19:33.677Z,98.40
2018-05-24T18:21:59.929Z,99.90
2018-05-24T18:24:26.315Z,97.10
2018-05-24T18:26:54.018Z,98.60
2018-05-24T18:29:20.974Z,98.80
2018-05-24T18:31:47.226Z,98.90
2018-05-24T18:34:13.467Z,99.10
2018-05-24T18:36:39.737Z,97.80
2018-05-24T18:39:06.683Z,97.70
2018-05-24T18:41:33.761Z,97.60
2018-05-24T18:44:00.989Z,97.80
2018-05-24T18:46:28.550Z,98.80
2018-05-24T18:48:55.948Z,99.70
2018-05-24T18:51:22.608Z,99.90
2018-05-24T18:53:48.858Z,99.20
2018-05-24T18:56:15.146Z,99.70
2018-05-24T18:58:41.980Z,97.70
2018-05-24T19:01:08.956Z,98.50
2018-05-24T19:03:35.636Z,98.60
2018-05-24T19:06:02.220Z,99.00
2018-05-24T19:08:29.200Z,98.50
2018-05-24T19:10:55.452Z,98.60
2018-05-24T19:13:22.067Z,98.90
2018-05-24T19:15:49.017Z,98.90
2018-05-24T19:18:15.256Z,98.90
2018-05-24T19:20:41.568Z,98.60
2018-05-24T19:23:08.557Z,98.20
2018-05-24T19:25:35.773Z,98.30
2018-05-24T19:28:03.270Z,98.40
2018-05-24T19:30:29.558Z,99.90
2018-05-24T19:32:56.938Z,98.80
2018-05-24T19:35:23.824Z,98.80
2018-05-24T19:37:50.069Z,99.00
2018-05-24T19:40:16.718Z,99.00
2018-05-24T19:42:44.013Z,99.00
2018-05-24T19:45:11.787Z,99.90
2018-05-24T19:47:39.313Z,99.90
2018-05-24T19:50:06.195Z,99.90
2018-05-24T19:52:33.556Z,99.90
2018-05-24T19:55:01.038Z,99.90
2018-05-24T19:57:27.865Z,99.90
2018-05-24T19:59:55.543Z,99.90
2018-05-24T20:02:22.322Z,99.90
2018-05-24T20:04:49.111Z,99.90
2018-05-24T20:07:15.329Z,99.90
2018-05-24T20:09:41.569Z,99.90
2018-05-24T20:12:08.666Z,99.90
2018-05-24T20:14:35.302Z,99.90
2018-05-24T20:17:01.723Z,99.90
2018-05-24T20:19:28.710Z,99.90
2018-05-24T20:21:54.956Z,99.90
2018-05-24T20:24:23.002Z,99.90
2018-05-24T20:26:50.034Z,99.90
2018-05-24T20:29:17.850Z,99.90
2018-05-24T20:31:44.181Z,99.90
2018-05-24T20:34:10.434Z,99.90
2018-05-24T20:36:36.805Z,99.90
2018-05-24T20:39:05.415Z,99.90
2018-05-24T20:41:33.177Z,99.90
2018-05-24T20:44:00.669Z,99.90
2018-05-24T20:46:26.936Z,99.90
2018-05-24T20:48:53.632Z,99.90
2018-05-24T20:51:20.426Z,99.90
2018-05-24T20:53:46.676Z,99.90
2018-05-24T20:56:13.427Z,99.90
2018-05-24T20:58:40.204Z,99.90
2018-05-24T21:01:07.004Z,99.90
2018-05-24T21:03:33.228Z,99.90
2018-05-24T21:05:59.457Z,99.90
2018-05-24T21:08:26.417Z,99.90
2018-05-24T21:10:52.676Z,99.90
2018-05-24T21:13:19.969Z,99.90
2018-05-24T21:15:46.221Z,99.90
2018-05-24T21:18:12.500Z,99.90
2018-05-24T21:20:39.274Z,99.90
2018-05-24T21:23:07.061Z,99.90
2018-05-24T21:25:33.349Z,99.90
2018-05-24T21:28:00.059Z,99.90
2018-05-24T21:30:26.337Z,99.90
2018-05-24T21:32:52.549Z,99.90
2018-05-24T21:35:20.070Z,99.90
2018-05-24T21:37:46.368Z,99.90
2018-05-24T21:40:13.141Z,99.90
2018-05-24T21:42:40.133Z,99.90
2018-05-24T21:45:06.710Z,99.90
2018-05-24T21:47:33.433Z,99.90
2018-05-24T21:49:59.661Z,99.90
2018-05-24T21:52:27.066Z,99.90
2018-05-24T21:54:54.622Z,99.90
2018-05-24T21:57:22.193Z,99.90
2018-05-24T21:59:49.738Z,99.90
2018-05-24T22:02:16.534Z,99.90
2018-05-24T22:04:43.180Z,99.90
2018-05-24T22:07:09.453Z,99.90
2018-05-24T22:09:35.754Z,99.90
2018-05-24T22:12:03.453Z,99.90
2018-05-24T22:14:30.235Z,99.90
2018-05-24T22:16:57.259Z,99.90
2018-05-24T22:19:24.152Z,99.90
2018-05-24T22:21:50.427Z,99.90
2018-05-24T22:24:16.712Z,99.90
2018-05-24T22:26:44.472Z,99.90
2018-05-24T22:29:11.475Z,99.90
2018-05-24T22:31:37.688Z,99.90
2018-05-24T22:34:04.507Z,99.90
2018-05-24T22:36:32.276Z,99.90
2018-05-24T22:38:59.242Z,99.90
2018-05-24T22:41:25.472Z,99.90
2018-05-24T22:43:52.539Z,99.90
2018-05-24T22:46:18.761Z,99.90
2018-05-24T22:48:45.570Z,99.90
2018-05-24T22:51:12.547Z,99.90
2018-05-24T22:53:40.114Z,99.90
2018-05-24T22:56:08.702Z,99.90
2018-05-24T22:58:36.106Z,99.90
2018-05-24T23:01:03.472Z,99.90
2018-05-24T23:03:30.517Z,99.90
2018-05-24T23:05:56.861Z,99.90
2018-05-24T23:08:23.116Z,99.90
2018-05-24T23:10:49.430Z,99.90
2018-05-24T23:13:16.152Z,99.90
2018-05-24T23:15:43.122Z,99.90
2018-05-24T23:18:09.900Z,99.90
2018-05-24T23:20:36.802Z,99.90
2018-05-24T23:23:03.221Z,99.90
2018-05-24T23:25:29.452Z,99.90
2018-05-24T23:27:57.016Z,99.90
2018-05-24T23:30:24.683Z,99.90
2018-05-24T23:32:51.640Z,99.90
2018-05-24T23:35:18.400Z,99.90
2018-05-24T23:37:45.104Z,99.90
2018-05-24T23:40:11.330Z,99.90
2018-05-24T23:42:37.624Z,99.90
2018-05-24T23:45:04.567Z,99.90
2018-05-24T23:47:31.656Z,99.90
2018-05-24T23:49:57.884Z,99.90
2018-05-24T23:52:24.672Z,99.90
2018-05-24T23:54:52.077Z,99.90
2018-05-24T23:57:18.888Z,99.90
2018-05-24T23:59:46.552Z,99.90
